sensor_id;sensor_type;location;lat;lon;timestamp;P1;durP1;ratioP1;P2;durP2;ratioP2
75537;SDS011;64121;48.666;8.114;2023-04-20T00:00:07;5.78;;;3.20;;
75537;SDS011;64121;48.666;8.114;2023-04-20T00:02:34;4.97;;;3.42;;
75537;SDS011;64121;48.666;8.114;2023-04-20T00:04:59;7.10;;;3.40;;
75537;SDS011;64121;48.666;8.114;2023-04-20T00:07:24;6.10;;;3.50;;
75537;SDS011;64121;48.666;8.114;2023-04-20T00:09:50;4.00;;;3.17;;
75537;SDS011;64121;48.666;8.114;2023-04-20T00:12:15;6.03;;;3.45;;
75537;SDS011;64121;48.666;8.114;2023-04-20T00:14:40;5.60;;;3.30;;
75537;SDS011;64121;48.666;8.114;2023-04-20T00:17:06;4.32;;;3.28;;
75537;SDS011;64121;48.666;8.114;2023-04-20T00:19:32;6.35;;;3.25;;
75537;SDS011;64121;48.666;8.114;2023-04-20T00:21:58;3.58;;;2.58;;
75537;SDS011;64121;48.666;8.114;2023-04-20T00:24:23;6.10;;;3.95;;
75537;SDS011;64121;48.666;8.114;2023-04-20T00:26:48;4.45;;;2.70;;
75537;SDS011;64121;48.666;8.114;2023-04-20T00:29:14;7.35;;;3.13;;
75537;SDS011;64121;48.666;8.114;2023-04-20T00:31:39;4.63;;;3.35;;
75537;SDS011;64121;48.666;8.114;2023-04-20T00:34:04;7.07;;;3.22;;
75537;SDS011;64121;48.666;8.114;2023-04-20T00:36:31;6.43;;;3.67;;
75537;SDS011;64121;48.666;8.114;2023-04-20T00:38:58;5.43;;;3.60;;
75537;SDS011;64121;48.666;8.114;2023-04-20T00:41:23;5.05;;;3.60;;
75537;SDS011;64121;48.666;8.114;2023-04-20T00:43:49;4.95;;;3.03;;
75537;SDS011;64121;48.666;8.114;2023-04-20T00:46:15;4.40;;;3.25;;
75537;SDS011;64121;48.666;8.114;2023-04-20T00:48:40;4.82;;;3.22;;
75537;SDS011;64121;48.666;8.114;2023-04-20T00:51:05;5.15;;;3.60;;
75537;SDS011;64121;48.666;8.114;2023-04-20T00:53:32;5.22;;;3.45;;
75537;SDS011;64121;48.666;8.114;2023-04-20T00:55:57;6.05;;;3.70;;
75537;SDS011;64121;48.666;8.114;2023-04-20T00:58:23;8.50;;;3.58;;
75537;SDS011;64121;48.666;8.114;2023-04-20T01:00:48;4.90;;;3.08;;
75537;SDS011;64121;48.666;8.114;2023-04-20T01:03:13;7.00;;;3.42;;
75537;SDS011;64121;48.666;8.114;2023-04-20T01:05:39;5.22;;;3.95;;
75537;SDS011;64121;48.666;8.114;2023-04-20T01:08:04;5.72;;;3.90;;
75537;SDS011;64121;48.666;8.114;2023-04-20T01:10:31;4.28;;;3.45;;
75537;SDS011;64121;48.666;8.114;2023-04-20T01:12:57;6.90;;;3.55;;
75537;SDS011;64121;48.666;8.114;2023-04-20T01:15:22;4.72;;;3.20;;
75537;SDS011;64121;48.666;8.114;2023-04-20T01:17:48;7.28;;;3.47;;
75537;SDS011;64121;48.666;8.114;2023-04-20T01:20:13;6.80;;;3.53;;
75537;SDS011;64121;48.666;8.114;2023-04-20T01:22:44;5.05;;;3.20;;
75537;SDS011;64121;48.666;8.114;2023-04-20T01:25:10;6.03;;;3.55;;
75537;SDS011;64121;48.666;8.114;2023-04-20T01:27:35;5.30;;;2.97;;
75537;SDS011;64121;48.666;8.114;2023-04-20T01:30:00;4.22;;;3.25;;
75537;SDS011;64121;48.666;8.114;2023-04-20T01:32:26;5.10;;;3.70;;
75537;SDS011;64121;48.666;8.114;2023-04-20T01:34:51;5.00;;;3.08;;
75537;SDS011;64121;48.666;8.114;2023-04-20T01:37:16;4.65;;;3.10;;
75537;SDS011;64121;48.666;8.114;2023-04-20T01:39:43;4.90;;;3.15;;
75537;SDS011;64121;48.666;8.114;2023-04-20T01:42:08;4.47;;;3.13;;
75537;SDS011;64121;48.666;8.114;2023-04-20T01:44:33;5.45;;;3.33;;
75537;SDS011;64121;48.666;8.114;2023-04-20T01:46:59;7.30;;;4.43;;
75537;SDS011;64121;48.666;8.114;2023-04-20T01:49:24;6.20;;;3.42;;
75537;SDS011;64121;48.666;8.114;2023-04-20T01:51:50;5.22;;;3.50;;
75537;SDS011;64121;48.666;8.114;2023-04-20T01:54:15;4.90;;;3.03;;
75537;SDS011;64121;48.666;8.114;2023-04-20T01:56:42;6.10;;;3.42;;
75537;SDS011;64121;48.666;8.114;2023-04-20T01:59:07;5.88;;;3.65;;
75537;SDS011;64121;48.666;8.114;2023-04-20T02:01:32;5.68;;;3.50;;
75537;SDS011;64121;48.666;8.114;2023-04-20T02:03:57;6.75;;;3.63;;
75537;SDS011;64121;48.666;8.114;2023-04-20T02:06:23;7.35;;;4.05;;
75537;SDS011;64121;48.666;8.114;2023-04-20T02:08:48;6.72;;;3.53;;
75537;SDS011;64121;48.666;8.114;2023-04-20T02:11:13;5.60;;;3.90;;
75537;SDS011;64121;48.666;8.114;2023-04-20T02:13:40;4.75;;;3.38;;
75537;SDS011;64121;48.666;8.114;2023-04-20T02:16:06;5.47;;;3.80;;
75537;SDS011;64121;48.666;8.114;2023-04-20T02:18:31;4.72;;;3.20;;
75537;SDS011;64121;48.666;8.114;2023-04-20T02:20:56;5.38;;;3.50;;
75537;SDS011;64121;48.666;8.114;2023-04-20T02:23:22;5.93;;;3.40;;
75537;SDS011;64121;48.666;8.114;2023-04-20T02:25:47;6.10;;;3.38;;
75537;SDS011;64121;48.666;8.114;2023-04-20T02:28:12;7.90;;;4.63;;
75537;SDS011;64121;48.666;8.114;2023-04-20T02:30:39;8.18;;;3.85;;
75537;SDS011;64121;48.666;8.114;2023-04-20T02:33:04;5.22;;;4.10;;
75537;SDS011;64121;48.666;8.114;2023-04-20T02:35:30;6.45;;;4.50;;
75537;SDS011;64121;48.666;8.114;2023-04-20T02:37:55;6.13;;;3.92;;
75537;SDS011;64121;48.666;8.114;2023-04-20T02:40:20;6.82;;;3.63;;
75537;SDS011;64121;48.666;8.114;2023-04-20T02:42:46;5.18;;;3.75;;
75537;SDS011;64121;48.666;8.114;2023-04-20T02:45:11;6.88;;;3.78;;
75537;SDS011;64121;48.666;8.114;2023-04-20T02:47:38;6.90;;;3.42;;
75537;SDS011;64121;48.666;8.114;2023-04-20T02:50:04;5.25;;;3.40;;
75537;SDS011;64121;48.666;8.114;2023-04-20T02:52:30;6.18;;;3.97;;
75537;SDS011;64121;48.666;8.114;2023-04-20T02:54:55;4.60;;;3.50;;
75537;SDS011;64121;48.666;8.114;2023-04-20T02:57:21;6.28;;;3.50;;
75537;SDS011;64121;48.666;8.114;2023-04-20T02:59:46;4.68;;;3.40;;
75537;SDS011;64121;48.666;8.114;2023-04-20T03:02:11;7.53;;;4.25;;
75537;SDS011;64121;48.666;8.114;2023-04-20T03:04:38;6.15;;;3.28;;
75537;SDS011;64121;48.666;8.114;2023-04-20T03:07:03;8.98;;;3.70;;
75537;SDS011;64121;48.666;8.114;2023-04-20T03:09:29;6.97;;;3.67;;
75537;SDS011;64121;48.666;8.114;2023-04-20T03:11:54;5.47;;;3.47;;
75537;SDS011;64121;48.666;8.114;2023-04-20T03:14:19;6.15;;;3.70;;
75537;SDS011;64121;48.666;8.114;2023-04-20T03:16:45;5.43;;;3.17;;
75537;SDS011;64121;48.666;8.114;2023-04-20T03:19:10;6.15;;;3.35;;
75537;SDS011;64121;48.666;8.114;2023-04-20T03:21:37;6.22;;;3.88;;
75537;SDS011;64121;48.666;8.114;2023-04-20T03:24:02;10.88;;;3.60;;
75537;SDS011;64121;48.666;8.114;2023-04-20T03:26:28;6.32;;;3.67;;
75537;SDS011;64121;48.666;8.114;2023-04-20T03:28:53;4.20;;;3.10;;
75537;SDS011;64121;48.666;8.114;2023-04-20T03:31:18;6.55;;;3.60;;
75537;SDS011;64121;48.666;8.114;2023-04-20T03:33:44;5.88;;;3.50;;
75537;SDS011;64121;48.666;8.114;2023-04-20T03:36:09;5.80;;;3.80;;
75537;SDS011;64121;48.666;8.114;2023-04-20T03:38:36;5.40;;;3.40;;
75537;SDS011;64121;48.666;8.114;2023-04-20T03:41:01;7.15;;;3.92;;
75537;SDS011;64121;48.666;8.114;2023-04-20T03:43:27;4.93;;;3.03;;
75537;SDS011;64121;48.666;8.114;2023-04-20T03:45:52;6.72;;;3.70;;
75537;SDS011;64121;48.666;8.114;2023-04-20T03:48:17;4.95;;;3.53;;
75537;SDS011;64121;48.666;8.114;2023-04-20T03:50:43;4.50;;;3.35;;
75537;SDS011;64121;48.666;8.114;2023-04-20T03:53:08;5.22;;;3.25;;
75537;SDS011;64121;48.666;8.114;2023-04-20T03:55:35;5.20;;;3.42;;
75537;SDS011;64121;48.666;8.114;2023-04-20T03:58:00;5.05;;;3.42;;
75537;SDS011;64121;48.666;8.114;2023-04-20T04:00:26;4.50;;;2.92;;
75537;SDS011;64121;48.666;8.114;2023-04-20T04:02:51;5.57;;;3.58;;
75537;SDS011;64121;48.666;8.114;2023-04-20T04:05:16;5.25;;;3.72;;
75537;SDS011;64121;48.666;8.114;2023-04-20T04:07:42;5.28;;;3.75;;
75537;SDS011;64121;48.666;8.114;2023-04-20T04:10:08;4.57;;;3.53;;
75537;SDS011;64121;48.666;8.114;2023-04-20T04:12:35;5.82;;;3.30;;
75537;SDS011;64121;48.666;8.114;2023-04-20T04:15:01;4.65;;;3.25;;
75537;SDS011;64121;48.666;8.114;2023-04-20T04:17:26;5.85;;;3.65;;
75537;SDS011;64121;48.666;8.114;2023-04-20T04:19:52;8.15;;;3.55;;
75537;SDS011;64121;48.666;8.114;2023-04-20T04:22:17;5.68;;;3.40;;
75537;SDS011;64121;48.666;8.114;2023-04-20T04:24:42;4.38;;;3.05;;
75537;SDS011;64121;48.666;8.114;2023-04-20T04:27:08;6.63;;;3.22;;
75537;SDS011;64121;48.666;8.114;2023-04-20T04:29:35;5.35;;;3.92;;
75537;SDS011;64121;48.666;8.114;2023-04-20T04:32:00;4.47;;;3.25;;
75537;SDS011;64121;48.666;8.114;2023-04-20T04:34:26;5.93;;;3.55;;
75537;SDS011;64121;48.666;8.114;2023-04-20T04:36:51;4.88;;;3.55;;
75537;SDS011;64121;48.666;8.114;2023-04-20T04:39:16;6.22;;;3.47;;
75537;SDS011;64121;48.666;8.114;2023-04-20T04:41:41;5.45;;;4.28;;
75537;SDS011;64121;48.666;8.114;2023-04-20T04:44:07;6.82;;;3.53;;
75537;SDS011;64121;48.666;8.114;2023-04-20T04:46:34;4.38;;;3.30;;
75537;SDS011;64121;48.666;8.114;2023-04-20T04:48:59;4.82;;;3.78;;
75537;SDS011;64121;48.666;8.114;2023-04-20T04:51:25;6.90;;;3.60;;
75537;SDS011;64121;48.666;8.114;2023-04-20T04:53:50;5.03;;;3.72;;
75537;SDS011;64121;48.666;8.114;2023-04-20T04:56:16;7.70;;;4.97;;
75537;SDS011;64121;48.666;8.114;2023-04-20T04:58:41;7.55;;;4.00;;
75537;SDS011;64121;48.666;8.114;2023-04-20T05:01:07;7.95;;;4.28;;
75537;SDS011;64121;48.666;8.114;2023-04-20T05:03:33;7.90;;;4.13;;
75537;SDS011;64121;48.666;8.114;2023-04-20T05:05:59;5.38;;;4.18;;
75537;SDS011;64121;48.666;8.114;2023-04-20T05:08:24;8.25;;;5.32;;
75537;SDS011;64121;48.666;8.114;2023-04-20T05:10:49;6.05;;;4.28;;
75537;SDS011;64121;48.666;8.114;2023-04-20T05:13:15;5.55;;;4.53;;
75537;SDS011;64121;48.666;8.114;2023-04-20T05:15:40;6.10;;;3.95;;
75537;SDS011;64121;48.666;8.114;2023-04-20T05:18:05;7.10;;;4.55;;
75537;SDS011;64121;48.666;8.114;2023-04-20T05:20:32;5.18;;;4.15;;
75537;SDS011;64121;48.666;8.114;2023-04-20T05:22:57;6.18;;;4.43;;
75537;SDS011;64121;48.666;8.114;2023-04-20T05:25:23;9.55;;;6.22;;
75537;SDS011;64121;48.666;8.114;2023-04-20T05:27:48;6.70;;;4.80;;
75537;SDS011;64121;48.666;8.114;2023-04-20T05:30:13;6.57;;;4.70;;
75537;SDS011;64121;48.666;8.114;2023-04-20T05:32:39;7.55;;;4.43;;
75537;SDS011;64121;48.666;8.114;2023-04-20T05:35:04;6.28;;;4.47;;
75537;SDS011;64121;48.666;8.114;2023-04-20T05:37:32;7.68;;;4.45;;
75537;SDS011;64121;48.666;8.114;2023-04-20T05:39:57;6.78;;;4.57;;
75537;SDS011;64121;48.666;8.114;2023-04-20T05:42:22;6.63;;;4.60;;
75537;SDS011;64121;48.666;8.114;2023-04-20T05:44:48;6.93;;;4.30;;
75537;SDS011;64121;48.666;8.114;2023-04-20T05:47:13;5.93;;;4.15;;
75537;SDS011;64121;48.666;8.114;2023-04-20T05:49:38;7.28;;;4.00;;
75537;SDS011;64121;48.666;8.114;2023-04-20T05:52:04;7.97;;;4.90;;
75537;SDS011;64121;48.666;8.114;2023-04-20T05:54:30;7.32;;;4.40;;
75537;SDS011;64121;48.666;8.114;2023-04-20T05:56:56;7.38;;;4.80;;
75537;SDS011;64121;48.666;8.114;2023-04-20T05:59:21;6.88;;;3.88;;
75537;SDS011;64121;48.666;8.114;2023-04-20T06:01:46;5.20;;;3.78;;
75537;SDS011;64121;48.666;8.114;2023-04-20T06:04:12;8.07;;;4.57;;
75537;SDS011;64121;48.666;8.114;2023-04-20T06:06:37;6.68;;;4.65;;
75537;SDS011;64121;48.666;8.114;2023-04-20T06:09:02;6.80;;;4.25;;
75537;SDS011;64121;48.666;8.114;2023-04-20T06:11:29;5.85;;;4.32;;
75537;SDS011;64121;48.666;8.114;2023-04-20T06:13:55;5.85;;;4.40;;
75537;SDS011;64121;48.666;8.114;2023-04-20T06:16:20;6.60;;;4.57;;
75537;SDS011;64121;48.666;8.114;2023-04-20T06:18:45;7.45;;;4.70;;
75537;SDS011;64121;48.666;8.114;2023-04-20T06:21:11;6.85;;;4.63;;
75537;SDS011;64121;48.666;8.114;2023-04-20T06:23:36;6.60;;;5.13;;
75537;SDS011;64121;48.666;8.114;2023-04-20T06:26:02;9.15;;;5.82;;
75537;SDS011;64121;48.666;8.114;2023-04-20T06:28:29;9.25;;;5.65;;
75537;SDS011;64121;48.666;8.114;2023-04-20T06:30:54;9.73;;;5.80;;
75537;SDS011;64121;48.666;8.114;2023-04-20T06:33:19;8.05;;;5.32;;
75537;SDS011;64121;48.666;8.114;2023-04-20T06:35:45;9.43;;;6.40;;
75537;SDS011;64121;48.666;8.114;2023-04-20T06:38:10;7.70;;;5.47;;
75537;SDS011;64121;48.666;8.114;2023-04-20T06:40:35;7.32;;;5.78;;
75537;SDS011;64121;48.666;8.114;2023-04-20T06:43:01;7.72;;;5.55;;
75537;SDS011;64121;48.666;8.114;2023-04-20T06:45:27;5.75;;;4.72;;
75537;SDS011;64121;48.666;8.114;2023-04-20T06:47:53;7.78;;;5.25;;
75537;SDS011;64121;48.666;8.114;2023-04-20T06:50:18;8.20;;;4.80;;
75537;SDS011;64121;48.666;8.114;2023-04-20T06:52:43;6.10;;;4.65;;
75537;SDS011;64121;48.666;8.114;2023-04-20T06:55:09;5.55;;;4.30;;
75537;SDS011;64121;48.666;8.114;2023-04-20T06:57:34;7.20;;;5.20;;
75537;SDS011;64121;48.666;8.114;2023-04-20T07:00:00;8.85;;;4.55;;
75537;SDS011;64121;48.666;8.114;2023-04-20T07:02:26;6.88;;;4.65;;
75537;SDS011;64121;48.666;8.114;2023-04-20T07:04:52;8.10;;;5.18;;
75537;SDS011;64121;48.666;8.114;2023-04-20T07:07:17;7.03;;;4.68;;
75537;SDS011;64121;48.666;8.114;2023-04-20T07:09:42;5.97;;;4.30;;
75537;SDS011;64121;48.666;8.114;2023-04-20T07:12:08;5.43;;;4.22;;
75537;SDS011;64121;48.666;8.114;2023-04-20T07:14:33;6.68;;;4.43;;
75537;SDS011;64121;48.666;8.114;2023-04-20T07:16:58;7.00;;;5.00;;
75537;SDS011;64121;48.666;8.114;2023-04-20T07:19:25;8.82;;;4.43;;
75537;SDS011;64121;48.666;8.114;2023-04-20T07:21:50;5.93;;;4.38;;
75537;SDS011;64121;48.666;8.114;2023-04-20T07:24:16;7.20;;;4.88;;
75537;SDS011;64121;48.666;8.114;2023-04-20T07:26:41;6.40;;;4.30;;
75537;SDS011;64121;48.666;8.114;2023-04-20T07:29:06;7.63;;;5.25;;
75537;SDS011;64121;48.666;8.114;2023-04-20T07:31:32;5.75;;;4.63;;
75537;SDS011;64121;48.666;8.114;2023-04-20T07:33:57;6.85;;;4.53;;
75537;SDS011;64121;48.666;8.114;2023-04-20T07:36:24;6.43;;;4.55;;
75537;SDS011;64121;48.666;8.114;2023-04-20T07:38:49;7.00;;;5.13;;
75537;SDS011;64121;48.666;8.114;2023-04-20T07:41:14;8.48;;;5.18;;
75537;SDS011;64121;48.666;8.114;2023-04-20T07:43:40;10.20;;;5.30;;
75537;SDS011;64121;48.666;8.114;2023-04-20T07:46:05;7.07;;;4.50;;
75537;SDS011;64121;48.666;8.114;2023-04-20T07:48:32;5.97;;;4.80;;
75537;SDS011;64121;48.666;8.114;2023-04-20T07:50:57;7.38;;;4.63;;
75537;SDS011;64121;48.666;8.114;2023-04-20T07:53:24;7.30;;;5.00;;
75537;SDS011;64121;48.666;8.114;2023-04-20T07:55:49;9.55;;;5.07;;
75537;SDS011;64121;48.666;8.114;2023-04-20T07:58:14;7.82;;;4.88;;
75537;SDS011;64121;48.666;8.114;2023-04-20T08:00:40;6.57;;;4.65;;
75537;SDS011;64121;48.666;8.114;2023-04-20T08:03:05;6.68;;;4.45;;
75537;SDS011;64121;48.666;8.114;2023-04-20T08:05:31;7.82;;;5.45;;
75537;SDS011;64121;48.666;8.114;2023-04-20T08:07:56;5.78;;;4.47;;
75537;SDS011;64121;48.666;8.114;2023-04-20T08:10:23;7.05;;;4.43;;
75537;SDS011;64121;48.666;8.114;2023-04-20T08:12:48;8.15;;;4.68;;
75537;SDS011;64121;48.666;8.114;2023-04-20T08:15:13;7.53;;;5.45;;
75537;SDS011;64121;48.666;8.114;2023-04-20T08:17:39;5.65;;;4.57;;
75537;SDS011;64121;48.666;8.114;2023-04-20T08:20:05;7.07;;;4.80;;
75537;SDS011;64121;48.666;8.114;2023-04-20T08:22:31;5.93;;;4.55;;
75537;SDS011;64121;48.666;8.114;2023-04-20T08:24:57;7.70;;;4.55;;
75537;SDS011;64121;48.666;8.114;2023-04-20T08:27:23;9.27;;;4.68;;
75537;SDS011;64121;48.666;8.114;2023-04-20T08:29:49;7.10;;;5.05;;
75537;SDS011;64121;48.666;8.114;2023-04-20T08:32:15;7.75;;;4.78;;
75537;SDS011;64121;48.666;8.114;2023-04-20T08:34:40;6.80;;;4.43;;
75537;SDS011;64121;48.666;8.114;2023-04-20T08:37:05;7.15;;;4.40;;
75537;SDS011;64121;48.666;8.114;2023-04-20T08:39:31;5.60;;;4.53;;
75537;SDS011;64121;48.666;8.114;2023-04-20T08:41:56;7.65;;;5.05;;
75537;SDS011;64121;48.666;8.114;2023-04-20T08:44:23;7.25;;;4.68;;
75537;SDS011;64121;48.666;8.114;2023-04-20T08:46:49;6.22;;;4.50;;
75537;SDS011;64121;48.666;8.114;2023-04-20T08:49:15;5.80;;;4.60;;
75537;SDS011;64121;48.666;8.114;2023-04-20T08:51:42;6.68;;;4.88;;
75537;SDS011;64121;48.666;8.114;2023-04-20T08:54:09;7.13;;;5.05;;
75537;SDS011;64121;48.666;8.114;2023-04-20T08:56:35;6.70;;;4.38;;
75537;SDS011;64121;48.666;8.114;2023-04-20T08:59:02;7.22;;;4.65;;
75537;SDS011;64121;48.666;8.114;2023-04-20T09:01:29;6.60;;;4.53;;
75537;SDS011;64121;48.666;8.114;2023-04-20T09:03:54;9.23;;;5.32;;
75537;SDS011;64121;48.666;8.114;2023-04-20T09:06:19;7.68;;;4.47;;
75537;SDS011;64121;48.666;8.114;2023-04-20T09:08:45;10.90;;;4.65;;
75537;SDS011;64121;48.666;8.114;2023-04-20T09:11:20;6.05;;;4.10;;
75537;SDS011;64121;48.666;8.114;2023-04-20T09:13:55;6.28;;;4.40;;
75537;SDS011;64121;48.666;8.114;2023-04-20T09:16:21;5.30;;;3.80;;
75537;SDS011;64121;48.666;8.114;2023-04-20T09:18:51;7.28;;;4.22;;
75537;SDS011;64121;48.666;8.114;2023-04-20T09:21:17;4.63;;;3.60;;
75537;SDS011;64121;48.666;8.114;2023-04-20T09:23:42;6.65;;;4.03;;
75537;SDS011;64121;48.666;8.114;2023-04-20T09:26:16;6.35;;;3.90;;
75537;SDS011;64121;48.666;8.114;2023-04-20T09:28:41;8.50;;;4.53;;
75537;SDS011;64121;48.666;8.114;2023-04-20T09:31:15;6.45;;;4.80;;
75537;SDS011;64121;48.666;8.114;2023-04-20T09:33:41;7.28;;;4.45;;
75537;SDS011;64121;48.666;8.114;2023-04-20T09:36:08;5.47;;;4.15;;
75537;SDS011;64121;48.666;8.114;2023-04-20T09:38:33;6.95;;;4.43;;
75537;SDS011;64121;48.666;8.114;2023-04-20T09:40:59;6.20;;;4.40;;
75537;SDS011;64121;48.666;8.114;2023-04-20T09:43:25;9.23;;;5.07;;
75537;SDS011;64121;48.666;8.114;2023-04-20T09:45:52;7.05;;;4.57;;
75537;SDS011;64121;48.666;8.114;2023-04-20T09:48:18;5.30;;;4.40;;
75537;SDS011;64121;48.666;8.114;2023-04-20T09:50:45;4.90;;;3.92;;
75537;SDS011;64121;48.666;8.114;2023-04-20T09:53:12;8.18;;;4.78;;
75537;SDS011;64121;48.666;8.114;2023-04-20T09:55:43;7.53;;;4.82;;
75537;SDS011;64121;48.666;8.114;2023-04-20T09:58:10;6.32;;;4.00;;
75537;SDS011;64121;48.666;8.114;2023-04-20T10:00:36;6.65;;;4.05;;
75537;SDS011;64121;48.666;8.114;2023-04-20T10:03:01;5.60;;;4.00;;
75537;SDS011;64121;48.666;8.114;2023-04-20T10:05:33;7.03;;;3.80;;
75537;SDS011;64121;48.666;8.114;2023-04-20T10:07:59;6.07;;;4.10;;
75537;SDS011;64121;48.666;8.114;2023-04-20T10:10:26;5.75;;;4.10;;
75537;SDS011;64121;48.666;8.114;2023-04-20T10:12:52;8.55;;;5.32;;
75537;SDS011;64121;48.666;8.114;2023-04-20T10:15:18;6.07;;;4.68;;
75537;SDS011;64121;48.666;8.114;2023-04-20T10:17:44;5.82;;;4.30;;
75537;SDS011;64121;48.666;8.114;2023-04-20T10:20:20;6.07;;;4.57;;
75537;SDS011;64121;48.666;8.114;2023-04-20T10:22:46;5.60;;;4.30;;
75537;SDS011;64121;48.666;8.114;2023-04-20T10:25:15;5.97;;;4.18;;
75537;SDS011;64121;48.666;8.114;2023-04-20T10:27:52;5.88;;;4.38;;
75537;SDS011;64121;48.666;8.114;2023-04-20T10:30:18;4.43;;;3.28;;
75537;SDS011;64121;48.666;8.114;2023-04-20T10:32:44;3.90;;;2.80;;
75537;SDS011;64121;48.666;8.114;2023-04-20T10:35:10;4.50;;;3.20;;
75537;SDS011;64121;48.666;8.114;2023-04-20T10:37:45;5.47;;;3.75;;
75537;SDS011;64121;48.666;8.114;2023-04-20T10:40:12;5.53;;;2.70;;
75537;SDS011;64121;48.666;8.114;2023-04-20T10:42:40;4.57;;;3.05;;
75537;SDS011;64121;48.666;8.114;2023-04-20T10:45:08;7.43;;;3.35;;
75537;SDS011;64121;48.666;8.114;2023-04-20T10:47:33;5.43;;;3.30;;
75537;SDS011;64121;48.666;8.114;2023-04-20T10:50:06;4.78;;;3.65;;
75537;SDS011;64121;48.666;8.114;2023-04-20T10:54:57;4.88;;;3.95;;
75537;SDS011;64121;48.666;8.114;2023-04-20T10:57:23;5.18;;;3.03;;
75537;SDS011;64121;48.666;8.114;2023-04-20T10:59:48;4.38;;;2.65;;
75537;SDS011;64121;48.666;8.114;2023-04-20T11:02:15;5.10;;;2.45;;
75537;SDS011;64121;48.666;8.114;2023-04-20T11:04:40;2.00;;;1.25;;
75537;SDS011;64121;48.666;8.114;2023-04-20T11:07:06;3.13;;;1.63;;
75537;SDS011;64121;48.666;8.114;2023-04-20T11:09:32;3.47;;;2.35;;
75537;SDS011;64121;48.666;8.114;2023-04-20T11:11:59;4.32;;;2.80;;
75537;SDS011;64121;48.666;8.114;2023-04-20T11:14:25;3.42;;;2.50;;
75537;SDS011;64121;48.666;8.114;2023-04-20T11:16:50;3.40;;;2.60;;
75537;SDS011;64121;48.666;8.114;2023-04-20T11:19:22;3.58;;;3.08;;
75537;SDS011;64121;48.666;8.114;2023-04-20T11:21:48;4.10;;;3.03;;
75537;SDS011;64121;48.666;8.114;2023-04-20T11:24:17;6.60;;;3.38;;
75537;SDS011;64121;48.666;8.114;2023-04-20T11:26:43;3.72;;;2.88;;
75537;SDS011;64121;48.666;8.114;2023-04-20T11:29:08;4.85;;;3.22;;
75537;SDS011;64121;48.666;8.114;2023-04-20T11:31:33;4.07;;;3.58;;
75537;SDS011;64121;48.666;8.114;2023-04-20T11:33:59;4.45;;;3.75;;
75537;SDS011;64121;48.666;8.114;2023-04-20T11:36:26;4.65;;;3.55;;
75537;SDS011;64121;48.666;8.114;2023-04-20T11:38:52;4.70;;;3.63;;
75537;SDS011;64121;48.666;8.114;2023-04-20T11:41:18;4.88;;;3.53;;
75537;SDS011;64121;48.666;8.114;2023-04-20T11:43:43;4.15;;;3.40;;
75537;SDS011;64121;48.666;8.114;2023-04-20T11:46:12;4.20;;;3.58;;
75537;SDS011;64121;48.666;8.114;2023-04-20T11:48:38;6.03;;;3.72;;
75537;SDS011;64121;48.666;8.114;2023-04-20T11:51:04;4.80;;;3.72;;
75537;SDS011;64121;48.666;8.114;2023-04-20T11:53:31;5.05;;;3.85;;
75537;SDS011;64121;48.666;8.114;2023-04-20T11:55:56;4.57;;;3.80;;
75537;SDS011;64121;48.666;8.114;2023-04-20T11:58:21;6.72;;;3.45;;
75537;SDS011;64121;48.666;8.114;2023-04-20T12:00:47;4.28;;;3.50;;
75537;SDS011;64121;48.666;8.114;2023-04-20T12:03:12;5.00;;;3.67;;
75537;SDS011;64121;48.666;8.114;2023-04-20T12:05:37;3.85;;;3.22;;
75537;SDS011;64121;48.666;8.114;2023-04-20T12:08:03;3.92;;;3.35;;
75537;SDS011;64121;48.666;8.114;2023-04-20T12:10:30;5.93;;;4.20;;
75537;SDS011;64121;48.666;8.114;2023-04-20T12:12:55;5.18;;;3.97;;
75537;SDS011;64121;48.666;8.114;2023-04-20T12:15:21;4.72;;;3.60;;
75537;SDS011;64121;48.666;8.114;2023-04-20T12:17:46;4.72;;;3.22;;
75537;SDS011;64121;48.666;8.114;2023-04-20T12:20:12;4.07;;;2.95;;
75537;SDS011;64121;48.666;8.114;2023-04-20T12:22:37;4.60;;;3.38;;
75537;SDS011;64121;48.666;8.114;2023-04-20T12:25:03;5.05;;;3.20;;
75537;SDS011;64121;48.666;8.114;2023-04-20T12:27:30;3.65;;;2.80;;
75537;SDS011;64121;48.666;8.114;2023-04-20T12:29:56;4.70;;;2.78;;
75537;SDS011;64121;48.666;8.114;2023-04-20T12:32:21;5.32;;;3.60;;
75537;SDS011;64121;48.666;8.114;2023-04-20T12:34:46;5.10;;;3.30;;
75537;SDS011;64121;48.666;8.114;2023-04-20T12:37:12;3.25;;;2.53;;
75537;SDS011;64121;48.666;8.114;2023-04-20T12:39:37;5.95;;;2.80;;
75537;SDS011;64121;48.666;8.114;2023-04-20T12:42:02;3.67;;;2.78;;
75537;SDS011;64121;48.666;8.114;2023-04-20T12:44:29;3.05;;;2.58;;
75537;SDS011;64121;48.666;8.114;2023-04-20T12:46:55;4.38;;;3.20;;
75537;SDS011;64121;48.666;8.114;2023-04-20T12:49:20;4.45;;;2.90;;
75537;SDS011;64121;48.666;8.114;2023-04-20T12:51:45;3.78;;;2.50;;
75537;SDS011;64121;48.666;8.114;2023-04-20T12:54:11;4.50;;;2.33;;
75537;SDS011;64121;48.666;8.114;2023-04-20T12:56:36;3.22;;;2.45;;
75537;SDS011;64121;48.666;8.114;2023-04-20T12:59:01;2.80;;;2.17;;
75537;SDS011;64121;48.666;8.114;2023-04-20T13:01:28;3.40;;;2.65;;
75537;SDS011;64121;48.666;8.114;2023-04-20T13:03:54;3.05;;;2.22;;
75537;SDS011;64121;48.666;8.114;2023-04-20T13:06:19;3.35;;;2.33;;
75537;SDS011;64121;48.666;8.114;2023-04-20T13:08:44;2.45;;;1.90;;
75537;SDS011;64121;48.666;8.114;2023-04-20T13:11:10;2.40;;;1.90;;
75537;SDS011;64121;48.666;8.114;2023-04-20T13:13:35;3.15;;;2.10;;
75537;SDS011;64121;48.666;8.114;2023-04-20T13:16:01;2.60;;;1.85;;
75537;SDS011;64121;48.666;8.114;2023-04-20T13:18:27;3.92;;;2.13;;
75537;SDS011;64121;48.666;8.114;2023-04-20T13:20:53;2.63;;;1.95;;
75537;SDS011;64121;48.666;8.114;2023-04-20T13:23:18;2.47;;;2.03;;
75537;SDS011;64121;48.666;8.114;2023-04-20T13:25:44;3.78;;;2.00;;
75537;SDS011;64121;48.666;8.114;2023-04-20T13:28:09;3.58;;;2.30;;
75537;SDS011;64121;48.666;8.114;2023-04-20T13:30:34;2.58;;;2.13;;
75537;SDS011;64121;48.666;8.114;2023-04-20T13:33:00;3.28;;;2.08;;
75537;SDS011;64121;48.666;8.114;2023-04-20T13:35:26;2.50;;;1.80;;
75537;SDS011;64121;48.666;8.114;2023-04-20T13:37:52;2.28;;;1.75;;
75537;SDS011;64121;48.666;8.114;2023-04-20T13:40:17;2.60;;;2.33;;
75537;SDS011;64121;48.666;8.114;2023-04-20T13:42:43;2.30;;;1.67;;
75537;SDS011;64121;48.666;8.114;2023-04-20T13:45:08;3.10;;;1.70;;
75537;SDS011;64121;48.666;8.114;2023-04-20T13:47:35;2.80;;;1.90;;
75537;SDS011;64121;48.666;8.114;2023-04-20T13:50:01;3.00;;;1.83;;
75537;SDS011;64121;48.666;8.114;2023-04-20T13:52:28;2.47;;;1.65;;
75537;SDS011;64121;48.666;8.114;2023-04-20T13:54:53;1.98;;;1.50;;
75537;SDS011;64121;48.666;8.114;2023-04-20T13:57:18;2.47;;;1.58;;
75537;SDS011;64121;48.666;8.114;2023-04-20T13:59:44;2.40;;;1.70;;
75537;SDS011;64121;48.666;8.114;2023-04-20T14:02:09;2.65;;;1.63;;
75537;SDS011;64121;48.666;8.114;2023-04-20T14:04:34;2.30;;;1.80;;
75537;SDS011;64121;48.666;8.114;2023-04-20T14:07:00;1.80;;;1.30;;
75537;SDS011;64121;48.666;8.114;2023-04-20T14:09:26;2.75;;;1.60;;
75537;SDS011;64121;48.666;8.114;2023-04-20T14:11:54;1.88;;;1.33;;
75537;SDS011;64121;48.666;8.114;2023-04-20T14:14:20;1.77;;;1.30;;
75537;SDS011;64121;48.666;8.114;2023-04-20T14:16:46;2.10;;;1.30;;
75537;SDS011;64121;48.666;8.114;2023-04-20T14:19:12;2.17;;;1.38;;
75537;SDS011;64121;48.666;8.114;2023-04-20T14:21:38;2.10;;;1.50;;
75537;SDS011;64121;48.666;8.114;2023-04-20T14:24:03;1.65;;;1.17;;
75537;SDS011;64121;48.666;8.114;2023-04-20T14:26:30;2.50;;;1.60;;
75537;SDS011;64121;48.666;8.114;2023-04-20T14:28:56;2.22;;;1.40;;
75537;SDS011;64121;48.666;8.114;2023-04-20T14:31:21;2.13;;;1.30;;
75537;SDS011;64121;48.666;8.114;2023-04-20T14:33:46;2.00;;;1.30;;
75537;SDS011;64121;48.666;8.114;2023-04-20T14:36:12;2.05;;;1.30;;
75537;SDS011;64121;48.666;8.114;2023-04-20T14:38:37;1.52;;;0.98;;
75537;SDS011;64121;48.666;8.114;2023-04-20T14:41:02;2.40;;;1.33;;